sensor_id;sensor_type;location;lat;lon;timestamp;pressure;altitude;pressure_sealevel;temperature;humidity
23281;BME280;11809;56.390;-3.266;2022-12-07T00:03:37;102308.00;;;12.16;55.55
23281;BME280;11809;56.390;-3.266;2022-12-07T00:06:06;102311.56;;;12.12;55.46
23281;BME280;11809;56.390;-3.266;2022-12-07T00:08:34;102302.88;;;12.07;55.62
23281;BME280;11809;56.390;-3.266;2022-12-07T00:11:06;102308.16;;;12.07;55.84
23281;BME280;11809;56.390;-3.266;2022-12-07T00:13:34;102306.47;;;12.04;55.91
23281;BME280;11809;56.390;-3.266;2022-12-07T00:18:33;102289.09;;;11.93;55.72
23281;BME280;11809;56.390;-3.266;2022-12-07T00:23:38;102302.28;;;11.93;56.07
23281;BME280;11809;56.390;-3.266;2022-12-07T00:26:12;102297.94;;;11.92;56.17
23281;BME280;11809;56.390;-3.266;2022-12-07T00:28:40;102282.34;;;11.81;55.98
23281;BME280;11809;56.390;-3.266;2022-12-07T00:31:12;102292.72;;;11.89;56.19
23281;BME280;11809;56.390;-3.266;2022-12-07T00:33:39;102292.78;;;11.86;56.04
23281;BME280;11809;56.390;-3.266;2022-12-07T00:36:09;102275.41;;;11.76;56.29
23281;BME280;11809;56.390;-3.266;2022-12-07T00:38:37;102291.94;;;11.84;56.21
23281;BME280;11809;56.390;-3.266;2022-12-07T00:41:10;102289.34;;;11.81;56.29
23281;BME280;11809;56.390;-3.266;2022-12-07T00:43:38;102282.34;;;11.80;56.15
23281;BME280;11809;56.390;-3.266;2022-12-07T00:46:06;102283.28;;;11.77;56.40
23281;BME280;11809;56.390;-3.266;2022-12-07T00:48:33;102284.19;;;11.75;56.37
23281;BME280;11809;56.390;-3.266;2022-12-07T00:51:00;102281.56;;;11.75;56.45
23281;BME280;11809;56.390;-3.266;2022-12-07T00:53:28;102281.63;;;11.72;56.31
23281;BME280;11809;56.390;-3.266;2022-12-07T00:55:55;102269.38;;;11.68;56.76
23281;BME280;11809;56.390;-3.266;2022-12-07T00:58:23;102271.16;;;11.66;56.63
23281;BME280;11809;56.390;-3.266;2022-12-07T01:00:50;102266.81;;;11.63;56.74
23281;BME280;11809;56.390;-3.266;2022-12-07T01:03:17;102258.13;;;11.60;56.67
23281;BME280;11809;56.390;-3.266;2022-12-07T01:05:52;102260.75;;;11.60;56.94
23281;BME280;11809;56.390;-3.266;2022-12-07T01:08:20;102262.56;;;11.57;56.85
23281;BME280;11809;56.390;-3.266;2022-12-07T01:10:48;102257.31;;;11.56;56.82
23281;BME280;11809;56.390;-3.266;2022-12-07T01:13:16;102259.97;;;11.54;57.03
23281;BME280;11809;56.390;-3.266;2022-12-07T01:15:43;102260.88;;;11.53;57.04
23281;BME280;11809;56.390;-3.266;2022-12-07T01:18:11;102265.31;;;11.51;57.24
23281;BME280;11809;56.390;-3.266;2022-12-07T01:20:38;102261.84;;;11.49;57.13
23281;BME280;11809;56.390;-3.266;2022-12-07T01:23:05;102257.47;;;11.48;56.82
23281;BME280;11809;56.390;-3.266;2022-12-07T01:25:32;102258.34;;;11.47;57.16
23281;BME280;11809;56.390;-3.266;2022-12-07T01:27:59;102252.19;;;11.47;57.02
23281;BME280;11809;56.390;-3.266;2022-12-07T01:30:26;102258.38;;;11.46;57.05
23281;BME280;11809;56.390;-3.266;2022-12-07T01:32:53;102239.22;;;11.36;56.87
23281;BME280;11809;56.390;-3.266;2022-12-07T01:35:20;102250.53;;;11.43;57.01
23281;BME280;11809;56.390;-3.266;2022-12-07T01:37:47;102241.75;;;11.42;56.93
23281;BME280;11809;56.390;-3.266;2022-12-07T01:40:13;102240.88;;;11.42;56.98
23281;BME280;11809;56.390;-3.266;2022-12-07T01:42:40;102237.41;;;11.40;57.20
23281;BME280;11809;56.390;-3.266;2022-12-07T01:45:41;102217.47;;;11.28;57.08
23281;BME280;11809;56.390;-3.266;2022-12-07T01:48:11;102233.06;;;11.39;57.32
23281;BME280;11809;56.390;-3.266;2022-12-07T01:50:40;102252.44;;;11.35;57.41
23281;BME280;11809;56.390;-3.266;2022-12-07T01:53:09;102250.69;;;11.34;57.18
23281;BME280;11809;56.390;-3.266;2022-12-07T01:55:38;102242.81;;;11.32;57.19
23281;BME280;11809;56.390;-3.266;2022-12-07T01:58:07;102243.72;;;11.31;57.28
23281;BME280;11809;56.390;-3.266;2022-12-07T02:00:34;102236.72;;;11.30;57.61
23281;BME280;11809;56.390;-3.266;2022-12-07T02:03:07;102234.09;;;11.30;57.47
23281;BME280;11809;56.390;-3.266;2022-12-07T02:05:37;102230.63;;;11.28;57.53
23281;BME280;11809;56.390;-3.266;2022-12-07T02:08:05;102238.53;;;11.28;57.40
23281;BME280;11809;56.390;-3.266;2022-12-07T02:10:33;102237.63;;;11.29;57.29
23281;BME280;11809;56.390;-3.266;2022-12-07T02:13:04;102225.44;;;11.25;57.39
23281;BME280;11809;56.390;-3.266;2022-12-07T02:21:15;102230.69;;;11.24;57.81
23281;BME280;11809;56.390;-3.266;2022-12-07T02:24:14;102236.00;;;11.22;57.52
23281;BME280;11809;56.390;-3.266;2022-12-07T02:37:42;102230.88;;;11.15;57.83
23281;BME280;11809;56.390;-3.266;2022-12-07T02:40:25;102227.38;;;11.14;57.66
23281;BME280;11809;56.390;-3.266;2022-12-07T02:43:07;102213.47;;;11.06;57.74
23281;BME280;11809;56.390;-3.266;2022-12-07T02:45:38;102208.25;;;11.03;57.77
23281;BME280;11809;56.390;-3.266;2022-12-07T02:48:08;102219.53;;;11.11;57.84
23281;BME280;11809;56.390;-3.266;2022-12-07T02:50:36;102215.16;;;11.10;58.04
23281;BME280;11809;56.390;-3.266;2022-12-07T02:53:03;102205.50;;;11.11;57.73
23281;BME280;11809;56.390;-3.266;2022-12-07T02:55:37;102212.56;;;11.09;58.07
23281;BME280;11809;56.390;-3.266;2022-12-07T03:00:59;102209.94;;;11.07;58.13
23281;BME280;11809;56.390;-3.266;2022-12-07T03:03:30;102210.00;;;11.04;57.90
23281;BME280;11809;56.390;-3.266;2022-12-07T03:06:14;102203.00;;;11.03;58.06
23281;BME280;11809;56.390;-3.266;2022-12-07T03:11:15;102186.47;;;10.95;57.95
23281;BME280;11809;56.390;-3.266;2022-12-07T03:14:00;102199.50;;;11.03;57.97
23281;BME280;11809;56.390;-3.266;2022-12-07T03:16:35;102197.78;;;11.02;58.06
23281;BME280;11809;56.390;-3.266;2022-12-07T03:19:09;102190.72;;;11.02;58.30
23281;BME280;11809;56.390;-3.266;2022-12-07T03:21:42;102192.53;;;11.02;57.96
23281;BME280;11809;56.390;-3.266;2022-12-07T03:24:14;102184.63;;;11.02;58.23
23281;BME280;11809;56.390;-3.266;2022-12-07T03:26:45;102178.50;;;11.01;58.00
23281;BME280;11809;56.390;-3.266;2022-12-07T03:29:22;102174.94;;;11.02;57.96
23281;BME280;11809;56.390;-3.266;2022-12-07T03:32:00;102182.00;;;11.00;58.21
23281;BME280;11809;56.390;-3.266;2022-12-07T03:34:36;102182.88;;;11.01;57.96
23281;BME280;11809;56.390;-3.266;2022-12-07T03:37:14;102170.59;;;11.00;58.16
23281;BME280;11809;56.390;-3.266;2022-12-07T03:40:29;102172.41;;;10.98;58.07
23281;BME280;11809;56.390;-3.266;2022-12-07T03:42:58;102175.88;;;11.00;58.15
23281;BME280;11809;56.390;-3.266;2022-12-07T03:45:36;102172.34;;;11.01;57.93
23281;BME280;11809;56.390;-3.266;2022-12-07T03:50:55;102166.22;;;11.00;58.23
23281;BME280;11809;56.390;-3.266;2022-12-07T03:53:39;102169.72;;;10.99;58.02
23281;BME280;11809;56.390;-3.266;2022-12-07T03:56:08;102162.72;;;11.00;58.24
23281;BME280;11809;56.390;-3.266;2022-12-07T03:58:36;102161.84;;;10.99;58.36
23281;BME280;11809;56.390;-3.266;2022-12-07T04:01:03;102160.09;;;11.00;58.03
23281;BME280;11809;56.390;-3.266;2022-12-07T04:03:30;102162.75;;;10.98;58.07
23281;BME280;11809;56.390;-3.266;2022-12-07T04:05:57;102159.22;;;10.99;58.19
23281;BME280;11809;56.390;-3.266;2022-12-07T04:08:25;102152.25;;;10.98;58.22
23281;BME280;11809;56.390;-3.266;2022-12-07T04:10:52;102152.25;;;10.98;58.25
23281;BME280;11809;56.390;-3.266;2022-12-07T04:13:19;102153.13;;;10.99;58.12
23281;BME280;11809;56.390;-3.266;2022-12-07T04:15:45;102154.88;;;10.98;58.25
23281;BME280;11809;56.390;-3.266;2022-12-07T04:18:13;102152.25;;;10.98;58.27
23281;BME280;11809;56.390;-3.266;2022-12-07T04:20:39;102147.91;;;10.95;58.12
23281;BME280;11809;56.390;-3.266;2022-12-07T04:23:06;102138.41;;;10.87;58.41
23281;BME280;11809;56.390;-3.266;2022-12-07T04:25:33;102151.41;;;10.94;58.28
23281;BME280;11809;56.390;-3.266;2022-12-07T04:28:00;102128.81;;;10.84;58.06
23281;BME280;11809;56.390;-3.266;2022-12-07T04:30:27;102143.56;;;10.93;58.31
23281;BME280;11809;56.390;-3.266;2022-12-07T04:32:54;102147.94;;;10.92;58.30
23281;BME280;11809;56.390;-3.266;2022-12-07T04:35:21;102137.47;;;10.91;58.24
23281;BME280;11809;56.390;-3.266;2022-12-07T04:37:48;102141.00;;;10.88;58.26
23281;BME280;11809;56.390;-3.266;2022-12-07T04:40:14;102138.34;;;10.90;58.59
23281;BME280;11809;56.390;-3.266;2022-12-07T04:42:41;102133.97;;;10.89;58.54
23281;BME280;11809;56.390;-3.266;2022-12-07T04:45:09;102132.25;;;10.88;58.53
23281;BME280;11809;56.390;-3.266;2022-12-07T04:47:36;102116.63;;;10.80;58.33
23281;BME280;11809;56.390;-3.266;2022-12-07T04:50:03;102133.09;;;10.90;58.43
23281;BME280;11809;56.390;-3.266;2022-12-07T04:52:30;102113.94;;;10.82;58.54
23281;BME280;11809;56.390;-3.266;2022-12-07T04:54:57;102116.59;;;10.82;58.63
23281;BME280;11809;56.390;-3.266;2022-12-07T04:57:24;102131.38;;;10.87;58.37
23281;BME280;11809;56.390;-3.266;2022-12-07T04:59:51;102137.53;;;10.88;58.69
23281;BME280;11809;56.390;-3.266;2022-12-07T05:02:18;102131.41;;;10.86;58.61
23281;BME280;11809;56.390;-3.266;2022-12-07T05:04:45;102126.13;;;10.86;58.76
23281;BME280;11809;56.390;-3.266;2022-12-07T05:07:12;102121.75;;;10.86;58.71
23281;BME280;11809;56.390;-3.266;2022-12-07T05:09:38;102114.78;;;10.85;58.44
23281;BME280;11809;56.390;-3.266;2022-12-07T05:12:05;102115.66;;;10.84;58.45
23281;BME280;11809;56.390;-3.266;2022-12-07T05:14:32;102113.03;;;10.84;58.45
23281;BME280;11809;56.390;-3.266;2022-12-07T05:16:59;102082.50;;;10.76;58.39
23281;BME280;11809;56.390;-3.266;2022-12-07T05:19:26;102098.13;;;10.85;58.72
23281;BME280;11809;56.390;-3.266;2022-12-07T05:21:53;102084.25;;;10.77;58.56
23281;BME280;11809;56.390;-3.266;2022-12-07T05:24:20;102097.28;;;10.83;58.65
23281;BME280;11809;56.390;-3.266;2022-12-07T05:26:47;102090.25;;;10.83;58.56
23281;BME280;11809;56.390;-3.266;2022-12-07T05:29:15;102081.63;;;10.77;58.87
23281;BME280;11809;56.390;-3.266;2022-12-07T05:31:43;102096.38;;;10.84;58.69
23281;BME280;11809;56.390;-3.266;2022-12-07T05:34:11;102105.13;;;10.84;58.76
23281;BME280;11809;56.390;-3.266;2022-12-07T05:36:38;102083.41;;;10.75;58.70
23281;BME280;11809;56.390;-3.266;2022-12-07T05:39:05;102094.53;;;10.89;59.34
23281;BME280;11809;56.390;-3.266;2022-12-07T05:41:32;102097.00;;;10.96;59.11
23281;BME280;11809;56.390;-3.266;2022-12-07T05:44:18;102089.94;;;11.02;59.42
23281;BME280;11809;56.390;-3.266;2022-12-07T05:46:45;102075.97;;;10.98;59.10
23281;BME280;11809;56.390;-3.266;2022-12-07T05:49:12;102085.34;;;11.11;59.30
23281;BME280;11809;56.390;-3.266;2022-12-07T05:51:40;102088.75;;;11.16;59.53
23281;BME280;11809;56.390;-3.266;2022-12-07T05:54:07;102075.56;;;11.18;59.71
23281;BME280;11809;56.390;-3.266;2022-12-07T05:56:34;102068.53;;;11.20;59.45
23281;BME280;11809;56.390;-3.266;2022-12-07T05:59:01;102065.84;;;11.21;59.60
23281;BME280;11809;56.390;-3.266;2022-12-07T06:01:47;102070.22;;;11.22;59.60
23281;BME280;11809;56.390;-3.266;2022-12-07T06:04:14;102053.50;;;11.23;59.59
23281;BME280;11809;56.390;-3.266;2022-12-07T06:06:41;102064.03;;;11.25;59.51
23281;BME280;11809;56.390;-3.266;2022-12-07T06:09:08;102064.91;;;11.25;59.88
23281;BME280;11809;56.390;-3.266;2022-12-07T06:11:35;102044.84;;;11.18;59.50
23281;BME280;11809;56.390;-3.266;2022-12-07T06:14:20;102061.22;;;11.32;59.72
23281;BME280;11809;56.390;-3.266;2022-12-07T06:16:47;102049.00;;;11.30;59.72
23281;BME280;11809;56.390;-3.266;2022-12-07T06:19:14;102071.53;;;11.43;59.82
23281;BME280;11809;56.390;-3.266;2022-12-07T06:21:42;102064.53;;;11.42;59.87
23281;BME280;11809;56.390;-3.266;2022-12-07T06:24:11;102062.72;;;11.45;59.91
23281;BME280;11809;56.390;-3.266;2022-12-07T06:26:39;102056.50;;;11.49;60.00
23281;BME280;11809;56.390;-3.266;2022-12-07T06:29:06;102059.91;;;11.54;60.08
23281;BME280;11809;56.390;-3.266;2022-12-07T06:31:33;102063.34;;;11.56;60.22
23281;BME280;11809;56.390;-3.266;2022-12-07T06:34:13;102054.50;;;11.59;60.18
23281;BME280;11809;56.390;-3.266;2022-12-07T06:36:40;102041.47;;;11.53;60.17
23281;BME280;11809;56.390;-3.266;2022-12-07T06:39:08;102049.25;;;11.59;60.34
23281;BME280;11809;56.390;-3.266;2022-12-07T06:41:36;102041.31;;;11.61;60.12
23281;BME280;11809;56.390;-3.266;2022-12-07T06:44:06;102034.25;;;11.63;60.12
23281;BME280;11809;56.390;-3.266;2022-12-07T06:46:33;102024.75;;;11.55;60.20
23281;BME280;11809;56.390;-3.266;2022-12-07T06:49:04;102018.53;;;11.58;60.32
23281;BME280;11809;56.390;-3.266;2022-12-07T06:51:32;102038.53;;;11.67;60.34
23281;BME280;11809;56.390;-3.266;2022-12-07T06:53:59;102035.91;;;11.68;60.29
23281;BME280;11809;56.390;-3.266;2022-12-07T06:56:26;102027.13;;;11.66;59.61
23281;BME280;11809;56.390;-3.266;2022-12-07T06:58:53;102032.50;;;11.62;59.25
23281;BME280;11809;56.390;-3.266;2022-12-07T07:01:20;102016.06;;;11.52;59.08
23281;BME280;11809;56.390;-3.266;2022-12-07T07:03:47;102029.13;;;11.56;59.08
23281;BME280;11809;56.390;-3.266;2022-12-07T07:06:14;102034.44;;;11.53;59.14
23281;BME280;11809;56.390;-3.266;2022-12-07T07:08:41;102040.59;;;11.52;59.01
23281;BME280;11809;56.390;-3.266;2022-12-07T07:11:09;102032.69;;;11.54;59.07
23281;BME280;11809;56.390;-3.266;2022-12-07T07:13:36;102032.69;;;11.54;59.16
23281;BME280;11809;56.390;-3.266;2022-12-07T07:16:05;102021.47;;;11.46;59.22
23281;BME280;11809;56.390;-3.266;2022-12-07T07:18:32;102016.09;;;11.50;59.04
23281;BME280;11809;56.390;-3.266;2022-12-07T07:20:59;102019.59;;;11.51;59.31
23281;BME280;11809;56.390;-3.266;2022-12-07T07:23:26;102020.47;;;11.51;59.29
23281;BME280;11809;56.390;-3.266;2022-12-07T07:25:53;102012.44;;;11.57;59.26
23281;BME280;11809;56.390;-3.266;2022-12-07T07:28:20;102010.47;;;11.66;59.62
23281;BME280;11809;56.390;-3.266;2022-12-07T07:30:47;102014.97;;;11.62;59.14
23281;BME280;11809;56.390;-3.266;2022-12-07T07:33:14;102009.72;;;11.61;59.36
23281;BME280;11809;56.390;-3.266;2022-12-07T07:35:41;102009.81;;;11.57;58.88
23281;BME280;11809;56.390;-3.266;2022-12-07T07:38:08;102012.56;;;11.51;58.91
23281;BME280;11809;56.390;-3.266;2022-12-07T07:40:35;102017.00;;;11.49;58.76
23281;BME280;11809;56.390;-3.266;2022-12-07T07:43:03;102019.75;;;11.43;58.95
23281;BME280;11809;56.390;-3.266;2022-12-07T07:45:30;102006.03;;;11.29;59.03
23281;BME280;11809;56.390;-3.266;2022-12-07T07:47:57;102019.13;;;11.32;59.05
23281;BME280;11809;56.390;-3.266;2022-12-07T07:50:24;102023.56;;;11.30;59.32
23281;BME280;11809;56.390;-3.266;2022-12-07T07:52:51;102019.25;;;11.26;59.31
23281;BME280;11809;56.390;-3.266;2022-12-07T07:55:19;102014.91;;;11.24;59.33
23281;BME280;11809;56.390;-3.266;2022-12-07T07:57:46;102009.72;;;11.21;59.62
23281;BME280;11809;56.390;-3.266;2022-12-07T08:00:20;102009.75;;;11.19;59.37
23281;BME280;11809;56.390;-3.266;2022-12-07T08:02:47;102003.66;;;11.17;59.50
23281;BME280;11809;56.390;-3.266;2022-12-07T08:05:14;101994.91;;;11.17;59.67
23281;BME280;11809;56.390;-3.266;2022-12-07T08:07:42;102003.75;;;11.13;59.79
23281;BME280;11809;56.390;-3.266;2022-12-07T08:10:12;102006.38;;;11.13;59.67
23281;BME280;11809;56.390;-3.266;2022-12-07T08:12:41;101998.69;;;11.02;59.59
23281;BME280;11809;56.390;-3.266;2022-12-07T08:15:28;101996.81;;;11.09;59.90
23281;BME280;11809;56.390;-3.266;2022-12-07T08:17:56;102006.47;;;11.08;59.83
23281;BME280;11809;56.390;-3.266;2022-12-07T08:20:23;102000.56;;;10.99;59.80
23281;BME280;11809;56.390;-3.266;2022-12-07T08:22:51;101991.78;;;10.96;59.81
23281;BME280;11809;56.390;-3.266;2022-12-07T08:25:18;102009.22;;;11.02;59.89
23281;BME280;11809;56.390;-3.266;2022-12-07T08:27:45;101991.88;;;10.93;59.96
23281;BME280;11809;56.390;-3.266;2022-12-07T08:30:12;102015.41;;;11.01;59.94
23281;BME280;11809;56.390;-3.266;2022-12-07T08:32:39;102014.53;;;10.99;59.96
23281;BME280;11809;56.390;-3.266;2022-12-07T08:35:06;102011.91;;;10.99;59.87
23281;BME280;11809;56.390;-3.266;2022-12-07T08:37:34;102015.47;;;10.98;60.10
23281;BME280;11809;56.390;-3.266;2022-12-07T08:40:03;102016.34;;;10.97;60.00
23281;BME280;11809;56.390;-3.266;2022-12-07T08:42:31;102017.25;;;10.96;60.16
23281;BME280;11809;56.390;-3.266;2022-12-07T08:45:09;102018.19;;;10.93;60.09
23281;BME280;11809;56.390;-3.266;2022-12-07T08:47:40;102018.19;;;10.93;60.26
23281;BME280;11809;56.390;-3.266;2022-12-07T08:50:10;101995.56;;;10.83;60.02
23281;BME280;11809;56.390;-3.266;2022-12-07T08:52:40;101993.00;;;10.82;60.17
23281;BME280;11809;56.390;-3.266;2022-12-07T08:55:10;102002.47;;;10.90;60.26
23281;BME280;11809;56.390;-3.266;2022-12-07T08:57:39;101994.59;;;10.89;60.29
23281;BME280;11809;56.390;-3.266;2022-12-07T09:00:08;101987.56;;;10.89;59.97
23281;BME280;11809;56.390;-3.266;2022-12-07T09:02:35;101964.13;;;10.79;59.95
23281;BME280;11809;56.390;-3.266;2022-12-07T09:05:04;101970.22;;;10.81;60.08
23281;BME280;11809;56.390;-3.266;2022-12-07T09:07:38;101966.78;;;10.77;60.03
23281;BME280;11809;56.390;-3.266;2022-12-07T09:10:06;101987.66;;;10.85;59.95
23281;BME280;11809;56.390;-3.266;2022-12-07T09:12:33;101974.69;;;10.77;60.30
23281;BME280;11809;56.390;-3.266;2022-12-07T09:15:00;101990.31;;;10.83;60.18
23281;BME280;11809;56.390;-3.266;2022-12-07T09:17:32;101983.34;;;10.82;60.25
23281;BME280;11809;56.390;-3.266;2022-12-07T09:19:59;101971.94;;;10.82;60.05
23281;BME280;11809;56.390;-3.266;2022-12-07T09:22:29;101964.22;;;10.73;60.05
23281;BME280;11809;56.390;-3.266;2022-12-07T09:25:00;101959.00;;;10.71;60.22
23281;BME280;11809;56.390;-3.266;2022-12-07T09:27:28;101965.88;;;10.80;60.09
23281;BME280;11809;56.390;-3.266;2022-12-07T09:29:55;101967.56;;;10.81;60.16
23281;BME280;11809;56.390;-3.266;2022-12-07T09:32:22;101965.00;;;10.79;60.08
23281;BME280;11809;56.390;-3.266;2022-12-07T09:34:49;101969.38;;;10.79;60.49
23281;BME280;11809;56.390;-3.266;2022-12-07T09:37:17;101965.00;;;10.78;60.23
23281;BME280;11809;56.390;-3.266;2022-12-07T09:39:45;101953.81;;;10.68;60.30
23281;BME280;11809;56.390;-3.266;2022-12-07T09:42:36;101959.75;;;10.78;60.35
23281;BME280;11809;56.390;-3.266;2022-12-07T09:45:12;101966.81;;;10.76;60.44
23281;BME280;11809;56.390;-3.266;2022-12-07T09:47:41;101954.75;;;10.66;60.41
23281;BME280;11809;56.390;-3.266;2022-12-07T09:50:17;101968.59;;;10.74;60.33
23281;BME280;11809;56.390;-3.266;2022-12-07T09:52:47;101971.22;;;10.74;60.38
23281;BME280;11809;56.390;-3.266;2022-12-07T09:55:25;101958.25;;;10.65;60.40
23281;BME280;11809;56.390;-3.266;2022-12-07T09:57:53;101966.88;;;10.73;60.29
23281;BME280;11809;56.390;-3.266;2022-12-07T10:00:21;101974.75;;;10.73;60.28
23281;BME280;11809;56.390;-3.266;2022-12-07T10:02:57;101976.53;;;10.72;60.28
23281;BME280;11809;56.390;-3.266;2022-12-07T10:05:30;101970.41;;;10.72;60.25
23281;BME280;11809;56.390;-3.266;2022-12-07T10:08:01;101965.19;;;10.69;60.58
23281;BME280;11809;56.390;-3.266;2022-12-07T10:10:31;101943.47;;;10.61;60.46
23281;BME280;11809;56.390;-3.266;2022-12-07T10:13:11;101948.56;;;10.68;60.61
23281;BME280;11809;56.390;-3.266;2022-12-07T10:15:56;101952.94;;;10.68;60.56
23281;BME280;11809;56.390;-3.266;2022-12-07T10:18:39;101952.94;;;10.68;60.62
23281;BME280;11809;56.390;-3.266;2022-12-07T10:21:19;101939.84;;;10.66;60.44
23281;BME280;11809;56.390;-3.266;2022-12-07T10:24:02;101921.59;;;10.59;60.35
23281;BME280;11809;56.390;-3.266;2022-12-07T10:29:20;101929.34;;;10.65;60.28
23281;BME280;11809;56.390;-3.266;2022-12-07T10:32:01;101921.44;;;10.65;60.58
23281;BME280;11809;56.390;-3.266;2022-12-07T10:34:32;101913.78;;;10.56;60.41
23281;BME280;11809;56.390;-3.266;2022-12-07T10:39:58;101908.34;;;10.63;60.12
23281;BME280;11809;56.390;-3.266;2022-12-07T10:42:28;101908.34;;;10.63;60.20
23281;BME280;11809;56.390;-3.266;2022-12-07T10:45:16;101909.22;;;10.64;60.30
23281;BME280;11809;56.390;-3.266;2022-12-07T10:47:51;101903.97;;;10.64;60.42
23281;BME280;11809;56.390;-3.266;2022-12-07T10:59:00;101904.84;;;10.63;60.34
23281;BME280;11809;56.390;-3.266;2022-12-07T11:01:49;101883.00;;;10.61;60.34
23281;BME280;11809;56.390;-3.266;2022-12-07T11:10:38;101884.75;;;10.62;60.29
23281;BME280;11809;56.390;-3.266;2022-12-07T11:16:23;101878.63;;;10.61;60.15
23281;BME280;11809;56.390;-3.266;2022-12-07T11:19:24;101881.19;;;10.63;60.28
23281;BME280;11809;56.390;-3.266;2022-12-07T11:22:00;101872.47;;;10.61;60.58
23281;BME280;11809;56.390;-3.266;2022-12-07T11:27:44;101864.59;;;10.61;60.58
23281;BME280;11809;56.390;-3.266;2022-12-07T11:30:19;101863.72;;;10.62;60.66
23281;BME280;11809;56.390;-3.266;2022-12-07T11:38:41;101869.03;;;10.59;60.71
23281;BME280;11809;56.390;-3.266;2022-12-07T11:41:12;101867.28;;;10.58;60.61
23281;BME280;11809;56.390;-3.266;2022-12-07T11:44:04;101855.91;;;10.57;60.74
23281;BME280;11809;56.390;-3.266;2022-12-07T11:46:50;101855.88;;;10.59;60.52
23281;BME280;11809;56.390;-3.266;2022-12-07T11:54:51;101835.69;;;10.61;60.75
23281;BME280;11809;56.390;-3.266;2022-12-07T11:57:36;101833.00;;;10.64;60.72
23281;BME280;11809;56.390;-3.266;2022-12-07T12:00:14;101832.94;;;10.65;60.75
23281;BME280;11809;56.390;-3.266;2022-12-07T12:02:53;101831.19;;;10.66;60.45
23281;BME280;11809;56.390;-3.266;2022-12-07T12:05:25;101826.81;;;10.65;60.50
23281;BME280;11809;56.390;-3.266;2022-12-07T12:08:16;101823.25;;;10.69;60.45
23281;BME280;11809;56.390;-3.266;2022-12-07T12:14:00;101814.47;;;10.68;60.57
23281;BME280;11809;56.390;-3.266;2022-12-07T12:22:05;101795.94;;;10.74;60.84
23281;BME280;11809;56.390;-3.266;2022-12-07T12:24:39;101788.06;;;10.74;60.63
23281;BME280;11809;56.390;-3.266;2022-12-07T12:27:16;101790.69;;;10.74;60.53
23281;BME280;11809;56.390;-3.266;2022-12-07T12:29:53;101788.06;;;10.73;60.83
23281;BME280;11809;56.390;-3.266;2022-12-07T12:32:29;101787.25;;;10.72;60.47
23281;BME280;11809;56.390;-3.266;2022-12-07T12:35:34;101781.19;;;10.69;60.63
23281;BME280;11809;56.390;-3.266;2022-12-07T12:38:29;101778.53;;;10.69;60.55
23281;BME280;11809;56.390;-3.266;2022-12-07T12:40:59;101782.03;;;10.69;60.75
23281;BME280;11809;56.390;-3.266;2022-12-07T12:43:49;101772.38;;;10.70;60.68
23281;BME280;11809;56.390;-3.266;2022-12-07T12:54:21;101752.38;;;10.64;60.81
23281;BME280;11809;56.390;-3.266;2022-12-07T13:02:21;101742.94;;;10.56;60.62
23281;BME280;11809;56.390;-3.266;2022-12-07T13:15:51;101733.34;;;10.53;60.82
23281;BME280;11809;56.390;-3.266;2022-12-07T13:31:38;101735.91;;;10.56;60.57
23281;BME280;11809;56.390;-3.266;2022-12-07T13:34:29;101731.59;;;10.54;60.79
23281;BME280;11809;56.390;-3.266;2022-12-07T13:37:43;101724.59;;;10.53;60.86
23281;BME280;11809;56.390;-3.266;2022-12-07T13:40:34;101700.25;;;10.45;60.88
23281;BME280;11809;56.390;-3.266;2022-12-07T13:42:41;101711.56;;;10.47;60.85
23281;BME280;11809;56.390;-3.266;2022-12-07T13:45:24;101704.44;;;10.52;60.86
23281;BME280;11809;56.390;-3.266;2022-12-07T13:48:33;101702.69;;;10.52;60.71
23281;BME280;11809;56.390;-3.266;2022-12-07T13:51:02;101691.38;;;10.50;60.72
23281;BME280;11809;56.390;-3.266;2022-12-07T13:53:32;101687.00;;;10.49;60.79
23281;BME280;11809;56.390;-3.266;2022-12-07T13:56:03;101688.75;;;10.49;60.71
23281;BME280;11809;56.390;-3.266;2022-12-07T13:58:32;101681.78;;;10.48;60.91
23281;BME280;11809;56.390;-3.266;2022-12-07T14:01:00;101659.22;;;10.39;60.91
23281;BME280;11809;56.390;-3.266;2022-12-07T14:03:32;101664.41;;;10.41;60.90
23281;BME280;11809;56.390;-3.266;2022-12-07T14:06:22;101672.97;;;10.49;60.85
23281;BME280;11809;56.390;-3.266;2022-12-07T14:09:08;101648.75;;;10.38;60.84
23281;BME280;11809;56.390;-3.266;2022-12-07T14:11:38;101665.16;;;10.47;60.87
23281;BME280;11809;56.390;-3.266;2022-12-07T14:14:17;101656.44;;;10.45;60.70
23281;BME280;11809;56.390;-3.266;2022-12-07T14:16:56;101665.19;;;10.46;61.02
23281;BME280;11809;56.390;-3.266;2022-12-07T14:22:27;101651.19;;;10.45;60.85
23281;BME280;11809;56.390;-3.266;2022-12-07T14:28:00;101653.00;;;10.43;60.94
23281;BME280;11809;56.390;-3.266;2022-12-07T14:30:31;101646.88;;;10.43;60.73
23281;BME280;11809;56.390;-3.266;2022-12-07T14:33:03;101643.31;;;10.44;61.04
23281;BME280;11809;56.390;-3.266;2022-12-07T14:35:32;101644.19;;;10.44;60.96
23281;BME280;11809;56.390;-3.266;2022-12-07T14:38:02;101646.88;;;10.43;61.04
23281;BME280;11809;56.390;-3.266;2022-12-07T14:40:34;101647.75;;;10.42;61.10
23281;BME280;11809;56.390;-3.266;2022-12-07T14:43:08;101637.25;;;10.42;61.09
23281;BME280;11809;56.390;-3.266;2022-12-07T14:45:38;101638.13;;;10.41;60.94
23281;BME280;11809;56.390;-3.266;2022-12-07T14:48:13;101625.22;;;10.31;61.03
23281;BME280;11809;56.390;-3.266;2022-12-07T14:51:04;101632.03;;;10.40;61.14
23281;BME280;11809;56.390;-3.266;2022-12-07T14:53:52;101626.81;;;10.39;61.35
23281;BME280;11809;56.390;-3.266;2022-12-07T14:56:24;101628.56;;;10.38;61.12
23281;BME280;11809;56.390;-3.266;2022-12-07T14:58:53;101624.19;;;10.39;61.17
23281;BME280;11809;56.390;-3.266;2022-12-07T15:01:20;101629.44;;;10.39;61.13
23281;BME280;11809;56.390;-3.266;2022-12-07T15:03:49;101607.78;;;10.29;61.40
23281;BME280;11809;56.390;-3.266;2022-12-07T15:06:18;101618.09;;;10.37;61.13